sensor_id;sensor_type;location;lat;lon;timestamp;P1;durP1;ratioP1;P2;durP2;ratioP2
3369;SDS011;42042;51.948;7.628;2022-07-15T00:02:01;8.73;;;2.93;;
3369;SDS011;42042;51.948;7.628;2022-07-15T00:04:28;3.07;;;2.43;;
3369;SDS011;42042;51.948;7.628;2022-07-15T00:06:55;3.27;;;2.17;;
3369;SDS011;42042;51.948;7.628;2022-07-15T00:09:22;7.47;;;2.93;;
3369;SDS011;42042;51.948;7.628;2022-07-15T00:12:11;10.90;;;2.97;;
3369;SDS011;42042;51.948;7.628;2022-07-15T00:14:38;8.63;;;3.00;;
3369;SDS011;42042;51.948;7.628;2022-07-15T00:17:06;3.87;;;2.50;;
3369;SDS011;42042;51.948;7.628;2022-07-15T00:19:34;8.43;;;2.90;;
3369;SDS011;42042;51.948;7.628;2022-07-15T00:22:01;5.53;;;3.10;;
3369;SDS011;42042;51.948;7.628;2022-07-15T00:24:29;8.40;;;2.80;;
3369;SDS011;42042;51.948;7.628;2022-07-15T00:26:56;6.63;;;2.90;;
3369;SDS011;42042;51.948;7.628;2022-07-15T00:29:25;4.53;;;3.30;;
3369;SDS011;42042;51.948;7.628;2022-07-15T00:31:52;7.17;;;2.50;;
3369;SDS011;42042;51.948;7.628;2022-07-15T00:34:20;5.40;;;2.70;;
3369;SDS011;42042;51.948;7.628;2022-07-15T00:36:47;3.53;;;2.80;;
3369;SDS011;42042;51.948;7.628;2022-07-15T00:39:15;6.87;;;3.00;;
3369;SDS011;42042;51.948;7.628;2022-07-15T00:41:43;6.80;;;2.57;;
3369;SDS011;42042;51.948;7.628;2022-07-15T00:44:10;4.43;;;2.50;;
3369;SDS011;42042;51.948;7.628;2022-07-15T00:46:39;7.90;;;3.13;;
3369;SDS011;42042;51.948;7.628;2022-07-15T00:49:07;7.03;;;3.67;;
3369;SDS011;42042;51.948;7.628;2022-07-15T00:51:35;7.47;;;3.20;;
3369;SDS011;42042;51.948;7.628;2022-07-15T00:54:03;10.27;;;2.57;;
3369;SDS011;42042;51.948;7.628;2022-07-15T00:56:31;6.67;;;3.00;;
3369;SDS011;42042;51.948;7.628;2022-07-15T00:59:02;6.50;;;3.03;;
3369;SDS011;42042;51.948;7.628;2022-07-15T01:01:29;19.33;;;3.80;;
3369;SDS011;42042;51.948;7.628;2022-07-15T01:03:58;10.90;;;2.93;;
3369;SDS011;42042;51.948;7.628;2022-07-15T01:06:26;8.90;;;3.20;;
3369;SDS011;42042;51.948;7.628;2022-07-15T01:08:54;6.83;;;3.00;;
3369;SDS011;42042;51.948;7.628;2022-07-15T01:11:21;3.70;;;3.23;;
3369;SDS011;42042;51.948;7.628;2022-07-15T01:13:48;7.03;;;3.30;;
3369;SDS011;42042;51.948;7.628;2022-07-15T01:16:16;8.87;;;4.00;;
3369;SDS011;42042;51.948;7.628;2022-07-15T01:18:43;5.87;;;3.60;;
3369;SDS011;42042;51.948;7.628;2022-07-15T01:21:11;16.43;;;4.10;;
3369;SDS011;42042;51.948;7.628;2022-07-15T01:23:39;13.63;;;4.10;;
3369;SDS011;42042;51.948;7.628;2022-07-15T01:26:07;6.90;;;3.80;;
3369;SDS011;42042;51.948;7.628;2022-07-15T01:28:35;6.20;;;3.63;;
3369;SDS011;42042;51.948;7.628;2022-07-15T01:31:03;12.23;;;3.60;;
3369;SDS011;42042;51.948;7.628;2022-07-15T01:33:30;6.77;;;3.43;;
3369;SDS011;42042;51.948;7.628;2022-07-15T01:35:58;6.03;;;3.80;;
3369;SDS011;42042;51.948;7.628;2022-07-15T01:38:27;10.13;;;3.90;;
3369;SDS011;42042;51.948;7.628;2022-07-15T01:40:55;7.80;;;3.90;;
3369;SDS011;42042;51.948;7.628;2022-07-15T01:43:22;8.10;;;3.97;;
3369;SDS011;42042;51.948;7.628;2022-07-15T01:45:49;11.87;;;4.33;;
3369;SDS011;42042;51.948;7.628;2022-07-15T01:48:17;9.37;;;4.40;;
3369;SDS011;42042;51.948;7.628;2022-07-15T01:51:02;10.73;;;4.20;;
3369;SDS011;42042;51.948;7.628;2022-07-15T01:53:30;7.53;;;3.60;;
3369;SDS011;42042;51.948;7.628;2022-07-15T01:55:57;9.47;;;3.80;;
3369;SDS011;42042;51.948;7.628;2022-07-15T01:58:25;5.23;;;3.60;;
3369;SDS011;42042;51.948;7.628;2022-07-15T02:00:52;6.50;;;4.00;;
3369;SDS011;42042;51.948;7.628;2022-07-15T02:03:19;7.87;;;3.97;;
3369;SDS011;42042;51.948;7.628;2022-07-15T02:05:46;5.47;;;4.53;;
3369;SDS011;42042;51.948;7.628;2022-07-15T02:08:13;7.07;;;4.40;;
3369;SDS011;42042;51.948;7.628;2022-07-15T02:10:42;6.90;;;4.23;;
3369;SDS011;42042;51.948;7.628;2022-07-15T02:13:10;8.67;;;4.83;;
3369;SDS011;42042;51.948;7.628;2022-07-15T02:15:38;8.47;;;4.57;;
3369;SDS011;42042;51.948;7.628;2022-07-15T02:18:06;7.13;;;3.80;;
3369;SDS011;42042;51.948;7.628;2022-07-15T02:20:33;6.50;;;3.83;;
3369;SDS011;42042;51.948;7.628;2022-07-15T02:23:01;7.03;;;4.30;;
3369;SDS011;42042;51.948;7.628;2022-07-15T02:25:28;7.43;;;4.00;;
3369;SDS011;42042;51.948;7.628;2022-07-15T02:27:58;8.97;;;5.37;;
3369;SDS011;42042;51.948;7.628;2022-07-15T02:30:26;8.53;;;4.37;;
3369;SDS011;42042;51.948;7.628;2022-07-15T02:32:54;7.47;;;4.17;;
3369;SDS011;42042;51.948;7.628;2022-07-15T02:35:22;7.43;;;3.87;;
3369;SDS011;42042;51.948;7.628;2022-07-15T02:37:49;7.97;;;5.07;;
3369;SDS011;42042;51.948;7.628;2022-07-15T02:40:16;10.80;;;3.80;;
3369;SDS011;42042;51.948;7.628;2022-07-15T02:42:46;6.63;;;4.00;;
3369;SDS011;42042;51.948;7.628;2022-07-15T02:45:16;11.27;;;4.63;;
3369;SDS011;42042;51.948;7.628;2022-07-15T02:47:43;10.40;;;4.23;;
3369;SDS011;42042;51.948;7.628;2022-07-15T02:50:10;6.00;;;4.33;;
3369;SDS011;42042;51.948;7.628;2022-07-15T02:52:38;10.70;;;4.40;;
3369;SDS011;42042;51.948;7.628;2022-07-15T02:55:05;6.77;;;3.80;;
3369;SDS011;42042;51.948;7.628;2022-07-15T02:57:33;11.90;;;4.27;;
3369;SDS011;42042;51.948;7.628;2022-07-15T03:00:00;5.90;;;4.30;;
3369;SDS011;42042;51.948;7.628;2022-07-15T03:02:29;11.50;;;4.33;;
3369;SDS011;42042;51.948;7.628;2022-07-15T03:04:56;9.83;;;4.40;;
3369;SDS011;42042;51.948;7.628;2022-07-15T03:07:23;8.43;;;4.90;;
3369;SDS011;42042;51.948;7.628;2022-07-15T03:09:51;9.63;;;4.23;;
3369;SDS011;42042;51.948;7.628;2022-07-15T03:12:18;7.20;;;4.47;;
3369;SDS011;42042;51.948;7.628;2022-07-15T03:14:45;7.93;;;4.23;;
3369;SDS011;42042;51.948;7.628;2022-07-15T03:17:12;7.30;;;5.57;;
3369;SDS011;42042;51.948;7.628;2022-07-15T03:19:41;6.77;;;3.70;;
3369;SDS011;42042;51.948;7.628;2022-07-15T03:22:08;9.23;;;4.03;;
3369;SDS011;42042;51.948;7.628;2022-07-15T03:24:35;6.30;;;4.00;;
3369;SDS011;42042;51.948;7.628;2022-07-15T03:27:02;9.93;;;4.73;;
3369;SDS011;42042;51.948;7.628;2022-07-15T03:29:30;10.10;;;4.93;;
3369;SDS011;42042;51.948;7.628;2022-07-15T03:31:57;9.80;;;4.83;;
3369;SDS011;42042;51.948;7.628;2022-07-15T03:34:24;8.60;;;5.57;;
3369;SDS011;42042;51.948;7.628;2022-07-15T03:36:53;14.63;;;5.50;;
3369;SDS011;42042;51.948;7.628;2022-07-15T03:39:20;10.13;;;4.80;;
3369;SDS011;42042;51.948;7.628;2022-07-15T03:41:47;15.47;;;5.90;;
3369;SDS011;42042;51.948;7.628;2022-07-15T03:44:15;9.70;;;5.97;;
3369;SDS011;42042;51.948;7.628;2022-07-15T03:46:42;9.53;;;5.60;;
3369;SDS011;42042;51.948;7.628;2022-07-15T03:49:10;6.47;;;4.80;;
3369;SDS011;42042;51.948;7.628;2022-07-15T03:51:37;11.73;;;6.23;;
3369;SDS011;42042;51.948;7.628;2022-07-15T03:54:06;7.67;;;5.37;;
3369;SDS011;42042;51.948;7.628;2022-07-15T03:56:33;7.13;;;5.17;;
3369;SDS011;42042;51.948;7.628;2022-07-15T03:59:02;10.47;;;5.57;;
3369;SDS011;42042;51.948;7.628;2022-07-15T04:01:29;8.73;;;5.00;;
3369;SDS011;42042;51.948;7.628;2022-07-15T04:03:56;9.13;;;4.90;;
3369;SDS011;42042;51.948;7.628;2022-07-15T04:06:23;11.70;;;4.67;;
3369;SDS011;42042;51.948;7.628;2022-07-15T04:08:51;13.40;;;4.83;;
3369;SDS011;42042;51.948;7.628;2022-07-15T04:11:20;9.50;;;4.90;;
3369;SDS011;42042;51.948;7.628;2022-07-15T04:13:47;6.33;;;4.20;;
3369;SDS011;42042;51.948;7.628;2022-07-15T04:16:14;10.00;;;4.60;;
3369;SDS011;42042;51.948;7.628;2022-07-15T04:18:41;5.60;;;4.13;;
3369;SDS011;42042;51.948;7.628;2022-07-15T04:21:09;10.90;;;3.70;;
3369;SDS011;42042;51.948;7.628;2022-07-15T04:23:36;9.27;;;4.47;;
3369;SDS011;42042;51.948;7.628;2022-07-15T04:26:03;15.77;;;4.97;;
3369;SDS011;42042;51.948;7.628;2022-07-15T04:28:32;10.87;;;4.73;;
3369;SDS011;42042;51.948;7.628;2022-07-15T04:30:59;6.90;;;4.50;;
3369;SDS011;42042;51.948;7.628;2022-07-15T04:33:27;10.10;;;4.10;;
3369;SDS011;42042;51.948;7.628;2022-07-15T04:35:54;15.57;;;4.60;;
3369;SDS011;42042;51.948;7.628;2022-07-15T04:38:21;5.47;;;3.90;;
3369;SDS011;42042;51.948;7.628;2022-07-15T04:40:49;7.00;;;4.53;;
3369;SDS011;42042;51.948;7.628;2022-07-15T04:43:16;5.27;;;3.80;;
3369;SDS011;42042;51.948;7.628;2022-07-15T04:45:45;6.73;;;4.00;;
3369;SDS011;42042;51.948;7.628;2022-07-15T04:48:12;7.93;;;4.13;;
3369;SDS011;42042;51.948;7.628;2022-07-15T04:50:57;9.57;;;4.10;;
3369;SDS011;42042;51.948;7.628;2022-07-15T04:53:24;5.40;;;3.40;;
3369;SDS011;42042;51.948;7.628;2022-07-15T04:55:52;8.60;;;4.17;;
3369;SDS011;42042;51.948;7.628;2022-07-15T04:58:19;10.13;;;4.20;;
3369;SDS011;42042;51.948;7.628;2022-07-15T05:00:47;5.00;;;3.80;;
3369;SDS011;42042;51.948;7.628;2022-07-15T05:03:15;8.10;;;3.53;;
3369;SDS011;42042;51.948;7.628;2022-07-15T05:05:42;8.60;;;4.40;;
3369;SDS011;42042;51.948;7.628;2022-07-15T05:08:09;7.67;;;3.73;;
3369;SDS011;42042;51.948;7.628;2022-07-15T05:10:36;9.93;;;4.20;;
3369;SDS011;42042;51.948;7.628;2022-07-15T05:13:04;9.73;;;3.57;;
3369;SDS011;42042;51.948;7.628;2022-07-15T05:15:31;8.30;;;4.30;;
3369;SDS011;42042;51.948;7.628;2022-07-15T05:18:00;6.23;;;3.20;;
3369;SDS011;42042;51.948;7.628;2022-07-15T05:20:28;8.33;;;3.43;;
3369;SDS011;42042;51.948;7.628;2022-07-15T05:22:55;13.43;;;4.27;;
3369;SDS011;42042;51.948;7.628;2022-07-15T05:25:22;14.03;;;3.70;;
3369;SDS011;42042;51.948;7.628;2022-07-15T05:27:49;5.63;;;3.20;;
3369;SDS011;42042;51.948;7.628;2022-07-15T05:30:17;8.20;;;3.33;;
3369;SDS011;42042;51.948;7.628;2022-07-15T05:32:44;16.57;;;2.93;;
3369;SDS011;42042;51.948;7.628;2022-07-15T05:35:13;8.70;;;3.37;;
3369;SDS011;42042;51.948;7.628;2022-07-15T05:37:41;9.73;;;3.00;;
3369;SDS011;42042;51.948;7.628;2022-07-15T05:40:09;10.90;;;3.23;;
3369;SDS011;42042;51.948;7.628;2022-07-15T05:42:37;7.00;;;2.80;;
3369;SDS011;42042;51.948;7.628;2022-07-15T05:45:05;7.90;;;2.70;;
3369;SDS011;42042;51.948;7.628;2022-07-15T05:47:33;9.47;;;3.03;;
3369;SDS011;42042;51.948;7.628;2022-07-15T05:50:00;6.77;;;2.40;;
3369;SDS011;42042;51.948;7.628;2022-07-15T05:52:29;4.30;;;2.70;;
3369;SDS011;42042;51.948;7.628;2022-07-15T05:54:56;8.70;;;2.60;;
3369;SDS011;42042;51.948;7.628;2022-07-15T05:57:23;6.43;;;2.23;;
3369;SDS011;42042;51.948;7.628;2022-07-15T05:59:50;6.50;;;2.57;;
3369;SDS011;42042;51.948;7.628;2022-07-15T06:02:17;8.73;;;2.67;;
3369;SDS011;42042;51.948;7.628;2022-07-15T06:04:45;10.73;;;2.87;;
3369;SDS011;42042;51.948;7.628;2022-07-15T06:07:12;8.30;;;2.47;;
3369;SDS011;42042;51.948;7.628;2022-07-15T06:09:40;9.87;;;2.90;;
3369;SDS011;42042;51.948;7.628;2022-07-15T06:12:08;9.13;;;3.00;;
3369;SDS011;42042;51.948;7.628;2022-07-15T06:14:35;8.23;;;2.60;;
3369;SDS011;42042;51.948;7.628;2022-07-15T06:17:02;6.43;;;2.40;;
3369;SDS011;42042;51.948;7.628;2022-07-15T06:19:29;4.93;;;2.03;;
3369;SDS011;42042;51.948;7.628;2022-07-15T06:21:57;10.73;;;2.87;;
3369;SDS011;42042;51.948;7.628;2022-07-15T06:24:25;5.47;;;2.30;;
3369;SDS011;42042;51.948;7.628;2022-07-15T06:26:53;9.13;;;3.03;;
3369;SDS011;42042;51.948;7.628;2022-07-15T06:29:21;14.53;;;2.80;;
3369;SDS011;42042;51.948;7.628;2022-07-15T06:31:48;8.20;;;2.57;;
3369;SDS011;42042;51.948;7.628;2022-07-15T06:34:16;7.70;;;2.23;;
3369;SDS011;42042;51.948;7.628;2022-07-15T06:36:43;4.33;;;2.60;;
3369;SDS011;42042;51.948;7.628;2022-07-15T06:39:10;6.10;;;2.63;;
3369;SDS011;42042;51.948;7.628;2022-07-15T06:41:38;8.43;;;3.07;;
3369;SDS011;42042;51.948;7.628;2022-07-15T06:44:06;6.40;;;2.40;;
3369;SDS011;42042;51.948;7.628;2022-07-15T06:46:33;9.50;;;3.00;;
3369;SDS011;42042;51.948;7.628;2022-07-15T06:49:01;8.27;;;3.67;;
3369;SDS011;42042;51.948;7.628;2022-07-15T06:51:28;12.80;;;2.83;;
3369;SDS011;42042;51.948;7.628;2022-07-15T06:53:55;8.00;;;2.33;;
3369;SDS011;42042;51.948;7.628;2022-07-15T06:56:22;10.20;;;2.47;;
3369;SDS011;42042;51.948;7.628;2022-07-15T06:58:49;9.70;;;3.20;;
3369;SDS011;42042;51.948;7.628;2022-07-15T07:01:18;7.80;;;2.43;;
3369;SDS011;42042;51.948;7.628;2022-07-15T07:03:45;5.13;;;2.03;;
3369;SDS011;42042;51.948;7.628;2022-07-15T07:06:13;7.10;;;2.37;;
3369;SDS011;42042;51.948;7.628;2022-07-15T07:08:40;4.90;;;2.00;;
3369;SDS011;42042;51.948;7.628;2022-07-15T07:11:07;7.03;;;2.13;;
3369;SDS011;42042;51.948;7.628;2022-07-15T07:13:35;6.30;;;2.33;;
3369;SDS011;42042;51.948;7.628;2022-07-15T07:16:02;7.60;;;2.03;;
3369;SDS011;42042;51.948;7.628;2022-07-15T07:18:31;5.00;;;2.10;;
3369;SDS011;42042;51.948;7.628;2022-07-15T07:20:58;4.63;;;1.83;;
3369;SDS011;42042;51.948;7.628;2022-07-15T07:23:26;3.90;;;1.87;;
3369;SDS011;42042;51.948;7.628;2022-07-15T07:25:55;4.30;;;2.47;;
3369;SDS011;42042;51.948;7.628;2022-07-15T07:28:22;5.40;;;2.83;;
3369;SDS011;42042;51.948;7.628;2022-07-15T07:30:50;6.50;;;1.90;;
3369;SDS011;42042;51.948;7.628;2022-07-15T07:33:19;6.17;;;1.73;;
3369;SDS011;42042;51.948;7.628;2022-07-15T07:35:48;5.00;;;1.83;;
3369;SDS011;42042;51.948;7.628;2022-07-15T07:38:16;6.27;;;2.00;;
3369;SDS011;42042;51.948;7.628;2022-07-15T07:40:44;5.67;;;2.30;;
3369;SDS011;42042;51.948;7.628;2022-07-15T07:43:13;6.60;;;2.17;;
3369;SDS011;42042;51.948;7.628;2022-07-15T07:45:41;5.60;;;2.37;;
3369;SDS011;42042;51.948;7.628;2022-07-15T07:48:08;4.77;;;1.80;;
3369;SDS011;42042;51.948;7.628;2022-07-15T07:50:35;3.43;;;1.53;;
3369;SDS011;42042;51.948;7.628;2022-07-15T07:53:04;9.47;;;1.93;;
3369;SDS011;42042;51.948;7.628;2022-07-15T07:55:31;8.27;;;2.00;;
3369;SDS011;42042;51.948;7.628;2022-07-15T07:57:59;8.20;;;2.00;;
3369;SDS011;42042;51.948;7.628;2022-07-15T08:00:26;11.87;;;2.13;;
3369;SDS011;42042;51.948;7.628;2022-07-15T08:02:54;6.63;;;1.90;;
3369;SDS011;42042;51.948;7.628;2022-07-15T08:05:21;5.80;;;1.93;;
3369;SDS011;42042;51.948;7.628;2022-07-15T08:07:49;3.80;;;1.90;;
3369;SDS011;42042;51.948;7.628;2022-07-15T08:10:17;4.10;;;1.63;;
3369;SDS011;42042;51.948;7.628;2022-07-15T08:12:45;12.20;;;4.03;;
3369;SDS011;42042;51.948;7.628;2022-07-15T08:15:12;5.30;;;1.67;;
3369;SDS011;42042;51.948;7.628;2022-07-15T08:17:40;5.40;;;2.43;;
3369;SDS011;42042;51.948;7.628;2022-07-15T08:20:08;3.70;;;1.83;;
3369;SDS011;42042;51.948;7.628;2022-07-15T08:22:35;5.13;;;1.77;;
3369;SDS011;42042;51.948;7.628;2022-07-15T08:25:03;3.00;;;1.47;;
3369;SDS011;42042;51.948;7.628;2022-07-15T08:27:32;3.03;;;1.73;;
3369;SDS011;42042;51.948;7.628;2022-07-15T08:29:59;6.50;;;1.70;;
3369;SDS011;42042;51.948;7.628;2022-07-15T08:32:27;2.97;;;2.17;;
3369;SDS011;42042;51.948;7.628;2022-07-15T08:34:54;1.70;;;1.50;;
3369;SDS011;42042;51.948;7.628;2022-07-15T08:37:21;5.13;;;1.67;;
3369;SDS011;42042;51.948;7.628;2022-07-15T08:39:51;5.87;;;1.53;;
3369;SDS011;42042;51.948;7.628;2022-07-15T08:42:18;8.77;;;1.77;;
3369;SDS011;42042;51.948;7.628;2022-07-15T08:44:47;12.53;;;6.70;;
3369;SDS011;42042;51.948;7.628;2022-07-15T08:47:14;3.20;;;1.77;;
3369;SDS011;42042;51.948;7.628;2022-07-15T08:49:41;7.00;;;1.80;;
3369;SDS011;42042;51.948;7.628;2022-07-15T08:52:10;9.90;;;2.23;;
3369;SDS011;42042;51.948;7.628;2022-07-15T08:54:38;4.43;;;1.60;;
3369;SDS011;42042;51.948;7.628;2022-07-15T08:57:05;6.10;;;1.67;;
3369;SDS011;42042;51.948;7.628;2022-07-15T08:59:32;3.93;;;1.50;;
3369;SDS011;42042;51.948;7.628;2022-07-15T09:02:01;3.30;;;1.70;;
3369;SDS011;42042;51.948;7.628;2022-07-15T09:04:28;4.80;;;1.50;;
3369;SDS011;42042;51.948;7.628;2022-07-15T09:06:57;2.87;;;1.47;;
3369;SDS011;42042;51.948;7.628;2022-07-15T09:09:28;1.80;;;1.37;;
3369;SDS011;42042;51.948;7.628;2022-07-15T09:11:57;4.10;;;1.57;;
3369;SDS011;42042;51.948;7.628;2022-07-15T09:14:24;4.73;;;1.70;;
3369;SDS011;42042;51.948;7.628;2022-07-15T09:22:25;5.50;;;2.80;;
3369;SDS011;42042;51.948;7.628;2022-07-15T09:25:00;2.40;;;1.40;;
3369;SDS011;42042;51.948;7.628;2022-07-15T09:27:28;5.30;;;1.50;;
3369;SDS011;42042;51.948;7.628;2022-07-15T09:29:56;3.77;;;1.40;;
3369;SDS011;42042;51.948;7.628;2022-07-15T09:32:50;3.83;;;1.20;;
3369;SDS011;42042;51.948;7.628;2022-07-15T09:35:41;2.53;;;1.50;;
3369;SDS011;42042;51.948;7.628;2022-07-15T09:38:28;3.43;;;1.53;;
3369;SDS011;42042;51.948;7.628;2022-07-15T09:40:56;3.20;;;1.50;;
3369;SDS011;42042;51.948;7.628;2022-07-15T09:43:24;4.30;;;1.60;;
3369;SDS011;42042;51.948;7.628;2022-07-15T09:45:55;4.13;;;1.80;;
3369;SDS011;42042;51.948;7.628;2022-07-15T09:48:23;2.87;;;1.73;;
3369;SDS011;42042;51.948;7.628;2022-07-15T09:50:55;5.30;;;1.80;;
3369;SDS011;42042;51.948;7.628;2022-07-15T09:53:24;4.97;;;2.23;;
3369;SDS011;42042;51.948;7.628;2022-07-15T09:55:53;4.80;;;1.53;;
3369;SDS011;42042;51.948;7.628;2022-07-15T09:58:21;3.07;;;1.50;;
3369;SDS011;42042;51.948;7.628;2022-07-15T10:00:48;3.67;;;1.40;;
3369;SDS011;42042;51.948;7.628;2022-07-15T10:03:17;2.20;;;1.40;;
3369;SDS011;42042;51.948;7.628;2022-07-15T10:05:48;2.43;;;1.50;;
3369;SDS011;42042;51.948;7.628;2022-07-15T10:08:17;2.50;;;1.20;;
3369;SDS011;42042;51.948;7.628;2022-07-15T10:10:44;4.10;;;1.30;;
3369;SDS011;42042;51.948;7.628;2022-07-15T10:13:19;2.70;;;1.60;;
3369;SDS011;42042;51.948;7.628;2022-07-15T10:15:51;5.50;;;1.57;;
3369;SDS011;42042;51.948;7.628;2022-07-15T10:18:27;3.17;;;1.60;;
3369;SDS011;42042;51.948;7.628;2022-07-15T10:21:03;2.07;;;1.60;;
3369;SDS011;42042;51.948;7.628;2022-07-15T10:23:42;2.20;;;1.33;;
3369;SDS011;42042;51.948;7.628;2022-07-15T10:26:19;3.93;;;1.27;;
3369;SDS011;42042;51.948;7.628;2022-07-15T10:28:51;4.60;;;1.40;;
3369;SDS011;42042;51.948;7.628;2022-07-15T10:31:20;4.03;;;1.50;;
3369;SDS011;42042;51.948;7.628;2022-07-15T10:36:38;2.50;;;1.57;;
3369;SDS011;42042;51.948;7.628;2022-07-15T10:39:06;2.73;;;1.47;;
3369;SDS011;42042;51.948;7.628;2022-07-15T10:41:47;3.07;;;1.30;;
3369;SDS011;42042;51.948;7.628;2022-07-15T10:44:16;2.03;;;1.60;;
3369;SDS011;42042;51.948;7.628;2022-07-15T10:46:43;5.10;;;1.70;;
3369;SDS011;42042;51.948;7.628;2022-07-15T10:49:29;6.00;;;2.00;;
3369;SDS011;42042;51.948;7.628;2022-07-15T10:52:13;5.13;;;1.30;;
3369;SDS011;42042;51.948;7.628;2022-07-15T10:54:45;1.27;;;1.17;;
3369;SDS011;42042;51.948;7.628;2022-07-15T10:57:12;3.20;;;1.20;;
3369;SDS011;42042;51.948;7.628;2022-07-15T10:59:49;2.93;;;1.97;;
3369;SDS011;42042;51.948;7.628;2022-07-15T11:02:18;7.10;;;1.67;;
3369;SDS011;42042;51.948;7.628;2022-07-15T11:04:46;3.63;;;1.57;;
3369;SDS011;42042;51.948;7.628;2022-07-15T11:07:20;7.00;;;1.60;;
3369;SDS011;42042;51.948;7.628;2022-07-15T11:09:47;1.90;;;1.13;;
3369;SDS011;42042;51.948;7.628;2022-07-15T11:12:17;2.00;;;1.30;;
3369;SDS011;42042;51.948;7.628;2022-07-15T11:14:53;4.40;;;1.80;;
3369;SDS011;42042;51.948;7.628;2022-07-15T11:17:21;5.27;;;1.30;;
3369;SDS011;42042;51.948;7.628;2022-07-15T11:19:51;3.10;;;1.33;;
3369;SDS011;42042;51.948;7.628;2022-07-15T11:22:20;6.07;;;2.17;;
3369;SDS011;42042;51.948;7.628;2022-07-15T11:24:47;1.20;;;1.10;;
3369;SDS011;42042;51.948;7.628;2022-07-15T11:27:15;1.57;;;1.17;;
3369;SDS011;42042;51.948;7.628;2022-07-15T11:29:43;1.90;;;1.20;;
3369;SDS011;42042;51.948;7.628;2022-07-15T11:32:12;3.67;;;1.23;;
3369;SDS011;42042;51.948;7.628;2022-07-15T11:34:41;2.27;;;1.20;;
3369;SDS011;42042;51.948;7.628;2022-07-15T11:37:09;2.90;;;1.50;;
3369;SDS011;42042;51.948;7.628;2022-07-15T11:39:37;3.97;;;1.50;;
3369;SDS011;42042;51.948;7.628;2022-07-15T11:42:05;2.50;;;1.10;;
3369;SDS011;42042;51.948;7.628;2022-07-15T11:44:50;3.90;;;1.20;;
3369;SDS011;42042;51.948;7.628;2022-07-15T11:47:19;3.40;;;1.30;;
3369;SDS011;42042;51.948;7.628;2022-07-15T11:49:48;1.60;;;1.20;;
3369;SDS011;42042;51.948;7.628;2022-07-15T11:52:21;2.60;;;1.10;;
3369;SDS011;42042;51.948;7.628;2022-07-15T11:54:49;2.80;;;1.43;;
3369;SDS011;42042;51.948;7.628;2022-07-15T11:57:16;2.77;;;1.40;;
3369;SDS011;42042;51.948;7.628;2022-07-15T11:59:50;3.23;;;1.33;;
3369;SDS011;42042;51.948;7.628;2022-07-15T12:02:22;1.10;;;0.97;;
3369;SDS011;42042;51.948;7.628;2022-07-15T12:04:49;1.47;;;1.00;;
3369;SDS011;42042;51.948;7.628;2022-07-15T12:07:17;1.80;;;1.20;;
3369;SDS011;42042;51.948;7.628;2022-07-15T12:09:44;2.87;;;1.10;;
3369;SDS011;42042;51.948;7.628;2022-07-15T12:12:12;1.07;;;1.00;;
3369;SDS011;42042;51.948;7.628;2022-07-15T12:14:39;3.80;;;1.50;;
3369;SDS011;42042;51.948;7.628;2022-07-15T12:17:08;2.80;;;1.10;;
3369;SDS011;42042;51.948;7.628;2022-07-15T12:19:37;1.67;;;1.40;;
3369;SDS011;42042;51.948;7.628;2022-07-15T12:22:05;4.00;;;1.23;;
3369;SDS011;42042;51.948;7.628;2022-07-15T12:24:36;1.20;;;1.10;;
3369;SDS011;42042;51.948;7.628;2022-07-15T12:27:03;4.20;;;1.13;;
3369;SDS011;42042;51.948;7.628;2022-07-15T12:29:31;4.00;;;1.10;;
3369;SDS011;42042;51.948;7.628;2022-07-15T12:31:59;1.87;;;1.30;;
3369;SDS011;42042;51.948;7.628;2022-07-15T12:37:10;1.30;;;1.20;;
3369;SDS011;42042;51.948;7.628;2022-07-15T12:42:19;1.17;;;1.00;;
3369;SDS011;42042;51.948;7.628;2022-07-15T12:44:47;2.03;;;1.13;;
3369;SDS011;42042;51.948;7.628;2022-07-15T12:47:31;2.80;;;1.10;;
3369;SDS011;42042;51.948;7.628;2022-07-15T12:49:59;1.30;;;1.20;;
3369;SDS011;42042;51.948;7.628;2022-07-15T12:52:31;2.20;;;1.20;;
3369;SDS011;42042;51.948;7.628;2022-07-15T12:55:00;1.30;;;1.20;;
3369;SDS011;42042;51.948;7.628;2022-07-15T12:57:31;2.50;;;1.13;;
3369;SDS011;42042;51.948;7.628;2022-07-15T13:00:00;1.50;;;1.10;;
3369;SDS011;42042;51.948;7.628;2022-07-15T13:02:29;1.10;;;1.00;;
3369;SDS011;42042;51.948;7.628;2022-07-15T13:04:56;1.20;;;1.10;;
3369;SDS011;42042;51.948;7.628;2022-07-15T13:07:23;1.63;;;1.20;;
3369;SDS011;42042;51.948;7.628;2022-07-15T13:09:52;1.33;;;1.10;;
3369;SDS011;42042;51.948;7.628;2022-07-15T13:12:20;2.03;;;1.20;;
3369;SDS011;42042;51.948;7.628;2022-07-15T13:14:47;1.40;;;1.20;;
3369;SDS011;42042;51.948;7.628;2022-07-15T13:17:14;1.93;;;1.13;;
3369;SDS011;42042;51.948;7.628;2022-07-15T13:19:42;3.83;;;1.00;;
3369;SDS011;42042;51.948;7.628;2022-07-15T13:22:09;1.83;;;1.43;;
3369;SDS011;42042;51.948;7.628;2022-07-15T13:24:36;1.47;;;1.10;;
3369;SDS011;42042;51.948;7.628;2022-07-15T13:27:04;1.43;;;1.10;;
3369;SDS011;42042;51.948;7.628;2022-07-15T13:29:32;1.20;;;1.00;;
3369;SDS011;42042;51.948;7.628;2022-07-15T13:31:59;1.80;;;1.20;;
3369;SDS011;42042;51.948;7.628;2022-07-15T13:34:26;1.20;;;1.10;;
3369;SDS011;42042;51.948;7.628;2022-07-15T13:36:53;1.20;;;1.10;;
3369;SDS011;42042;51.948;7.628;2022-07-15T13:39:21;1.80;;;1.27;;
3369;SDS011;42042;51.948;7.628;2022-07-15T13:41:48;1.20;;;1.10;;
3369;SDS011;42042;51.948;7.628;2022-07-15T13:44:16;1.63;;;1.17;;
3369;SDS011;42042;51.948;7.628;2022-07-15T13:46:43;1.73;;;1.27;;
3369;SDS011;42042;51.948;7.628;2022-07-15T13:49:11;2.13;;;1.10;;
3369;SDS011;42042;51.948;7.628;2022-07-15T13:51:38;2.20;;;1.10;;
3369;SDS011;42042;51.948;7.628;2022-07-15T13:54:06;4.60;;;1.27;;
3369;SDS011;42042;51.948;7.628;2022-07-15T13:56:33;2.83;;;1.20;;
3369;SDS011;42042;51.948;7.628;2022-07-15T13:59:00;2.70;;;1.20;;
3369;SDS011;42042;51.948;7.628;2022-07-15T14:01:29;3.47;;;1.20;;
3369;SDS011;42042;51.948;7.628;2022-07-15T14:03:57;4.00;;;1.07;;
3369;SDS011;42042;51.948;7.628;2022-07-15T14:06:24;2.23;;;1.10;;
3369;SDS011;42042;51.948;7.628;2022-07-15T14:08:51;2.40;;;1.03;;
3369;SDS011;42042;51.948;7.628;2022-07-15T14:11:19;1.20;;;1.10;;
3369;SDS011;42042;51.948;7.628;2022-07-15T14:13:46;5.70;;;1.83;;
3369;SDS011;42042;51.948;7.628;2022-07-15T14:16:13;1.57;;;1.30;;
3369;SDS011;42042;51.948;7.628;2022-07-15T14:18:42;1.17;;;1.00;;
3369;SDS011;42042;51.948;7.628;2022-07-15T14:21:10;5.23;;;1.20;;
3369;SDS011;42042;51.948;7.628;2022-07-15T14:23:38;1.60;;;1.43;;
3369;SDS011;42042;51.948;7.628;2022-07-15T14:26:05;1.50;;;1.40;;
3369;SDS011;42042;51.948;7.628;2022-07-15T14:28:32;1.80;;;1.70;;
3369;SDS011;42042;51.948;7.628;2022-07-15T14:30:59;2.57;;;1.10;;
3369;SDS011;42042;51.948;7.628;2022-07-15T14:33:27;6.83;;;2.20;;
3369;SDS011;42042;51.948;7.628;2022-07-15T14:35:55;1.77;;;1.00;;
3369;SDS011;42042;51.948;7.628;2022-07-15T14:38:22;1.77;;;1.00;;
3369;SDS011;42042;51.948;7.628;2022-07-15T14:40:50;1.77;;;1.00;;
3369;SDS011;42042;51.948;7.628;2022-07-15T14:43:17;1.27;;;1.13;;
3369;SDS011;42042;51.948;7.628;2022-07-15T14:45:44;2.33;;;2.00;;
3369;SDS011;42042;51.948;7.628;2022-07-15T14:48:11;3.50;;;1.33;;
3369;SDS011;42042;51.948;7.628;2022-07-15T14:50:38;1.80;;;1.23;;
3369;SDS011;42042;51.948;7.628;2022-07-15T14:53:07;1.57;;;1.07;;
3369;SDS011;42042;51.948;7.628;2022-07-15T14:55:34;2.60;;;1.20;;
3369;SDS011;42042;51.948;7.628;2022-07-15T14:58:01;1.40;;;1.30;;
3369;SDS011;42042;51.948;7.628;2022-07-15T15:00:29;1.20;;;1.00;;
3369;SDS011;42042;51.948;7.628;2022-07-15T15:02:56;1.63;;;1.03;;
3369;SDS011;42042;51.948;7.628;2022-07-15T15:05:24;1.23;;;1.13;;
3369;SDS011;42042;51.948;7.628;2022-07-15T15:07:51;1.23;;;1.13;;
3369;SDS011;42042;51.948;7.628;2022-07-15T15:10:19;2.90;;;1.20;;
3369;SDS011;42042;51.948;7.628;2022-07-15T15:12:47;2.70;;;2.10;;
3369;SDS011;42042;51.948;7.628;2022-07-15T15:15:14;2.47;;;1.30;;
3369;SDS011;42042;51.948;7.628;2022-07-15T15:17:41;1.00;;;1.00;;
3369;SDS011;42042;51.948;7.628;2022-07-15T15:20:09;1.30;;;1.10;;
3369;SDS011;42042;51.948;7.628;2022-07-15T15:22:37;1.33;;;1.23;;